Latest Weather Observations for Clare

IDS60801

Issued at 12:31 pm CDT Monday 23 January 2017 (issued every 30 minutes, with the page automatically refreshed every 10 minutes)

About weather observations | Map of weather stations | Latest weather observations for SA | Other Formats
Station Details ID: 021131 Name: CLARE HIGH SCHOOL Lat: -33.82 Lon: 138.59 Height: 395.0 m
Data from the previous 72 hours. | See also: Recent months at Clare
Date/Time
CDT
Temp
°C
App
Temp
°C
Dew
Point
°C
Rel
Hum
%
Delta-T
°C
Wind Press
QNH
hPa
Press
MSL
hPa
Rain since
9am
mm
Dir  Spd
km/h
Gust
km/h
Spd
kts
Gust
kts
23/12:30pm 27.2 25.7 14.2 44 7.9 W 15 24 8 13 1008.1 - 0.0
23/12:00pm 30.6 28.8 12.0 32 11.1 WSW 13 20 7 11 1007.5 1005.7 0.0
23/11:30am 31.6 27.6 9.2 25 12.8 W 20 33 11 18 1007.1 - 0.0
23/11:00am 32.9 29.8 10.3 25 13.2 NW 17 28 9 15 1007.1 - 0.0
23/10:30am 32.8 28.8 8.3 22 13.9 NNW 19 30 10 16 1007.3 - 0.0
23/10:00am 30.4 28.4 8.7 26 12.2 NNW 9 15 5 8 1007.3 - 0.0
23/09:30am 29.3 27.9 8.9 28 11.5 NNW 6 15 3 8 1007.0 - 0.0
23/09:00am 26.7 27.8 13.4 43 8.0 CALM 0 0 0 0 1007.3 1005.5 0.0
23/08:30am 25.9 27.1 13.7 47 7.3 CALM 0 0 0 0 1007.5 - 0.0
23/08:00am 23.6 24.7 13.5 53 6.0 CALM 0 0 0 0 1007.4 - 0.0
23/07:30am 21.6 22.7 13.5 60 4.8 CALM 0 0 0 0 1007.0 - 0.0
23/07:00am 20.1 21.3 13.8 67 3.7 CALM 0 0 0 0 1006.7 - 0.0
23/06:30am 20.1 20.8 12.3 61 4.5 CALM 0 0 0 0 1006.8 - 0.0
23/06:00am 20.4 21.2 12.6 61 4.5 CALM 0 0 0 0 1006.6 1004.8 0.0
23/05:30am 21.4 22.5 13.6 61 4.6 CALM 0 0 0 0 1006.4 - 0.0
23/05:00am 21.8 23.1 14.2 62 4.5 CALM 0 0 0 0 1006.3 - 0.0
23/04:30am 22.2 23.6 14.3 61 4.7 CALM 0 0 0 0 1006.4 - 0.0
23/04:00am 22.0 23.7 15.1 65 4.2 CALM 0 0 0 0 1006.7 - 0.0
23/03:30am 22.4 24.3 15.7 66 4.1 CALM 0 0 0 0 1006.8 - 0.0
23/03:00am 22.2 24.0 15.5 66 4.1 CALM 0 0 0 0 1007.0 1005.3 0.0
23/02:30am 22.6 23.8 13.7 57 5.3 CALM 0 0 0 0 1007.8 - 0.0
23/02:00am 22.9 23.8 12.8 53 5.9 CALM 0 0 0 0 1008.2 - 0.0
23/01:30am 22.6 23.5 12.8 54 5.7 CALM 0 0 0 0 1008.6 - 0.0
23/01:00am 23.0 24.0 13.2 54 5.8 CALM 0 0 0 0 1008.9 - 0.0
23/12:30am 22.5 23.6 13.6 57 5.3 CALM 0 0 0 0 1009.3 - 0.0
23/12:00am 22.0 23.3 14.1 61 4.7 CALM 0 0 0 0 1009.3 1007.6 0.0
 
Date/Time
CDT
Temp
°C
App
Temp
°C
Dew
Point
°C
Rel
Hum
%
Delta-T
°C
Wind Press
QNH
hPa
Press
MSL
hPa
Rain since
9am
mm
Dir  Spd
km/h
Gust
km/h
Spd
kts
Gust
kts
22/11:30pm 22.3 22.9 12.0 52 5.9 CALM 0 0 0 0 1009.3 - 0.0
22/11:00pm 22.3 22.4 10.1 46 6.8 CALM 0 0 0 0 1009.5 - 0.0
22/10:30pm 22.1 22.5 11.2 50 6.2 CALM 0 0 0 0 1009.5 - 0.0
22/10:00pm 22.9 23.2 11.0 47 6.7 CALM 0 0 0 0 1009.6 - 0.0
22/09:30pm 24.2 24.2 9.8 40 8.0 CALM 0 0 0 0 1009.7 - 0.0
22/09:00pm 26.4 25.9 7.9 31 10.1 CALM 0 0 0 0 1009.8 1008.1 0.0
22/08:30pm 26.0 26.0 9.8 36 9.1 CALM 0 0 0 0 1009.7 - 0.0
22/08:00pm 27.6 26.9 6.9 27 11.2 CALM 0 0 0 0 1009.5 - 0.0
22/07:30pm 28.7 26.5 6.1 24 12.1 W 7 15 4 8 1009.7 - 0.0
22/07:00pm 30.2 27.0 6.8 23 12.8 W 13 26 7 14 1009.6 - 0.0
22/06:30pm 30.9 27.3 6.7 22 13.2 W 15 24 8 13 1009.4 - 0.0
22/06:00pm 30.7 27.0 7.8 24 12.8 W 17 26 9 14 1009.4 1007.7 0.0
22/05:30pm 32.8 30.6 5.4 18 14.8 WNW 6 20 3 11 1009.4 - 0.0
22/05:00pm 32.5 30.2 5.9 19 14.5 NW 7 20 4 11 1009.6 - 0.0
22/04:30pm 32.7 29.3 6.1 19 14.6 WNW 13 22 7 12 1009.7 - 0.0
22/04:00pm 32.7 31.4 7.5 21 14.1 WNW 4 26 2 14 1010.0 - 0.0
22/03:30pm 31.9 27.1 4.6 18 14.5 N 19 24 10 13 1010.3 - 0.0
22/03:00pm 31.5 27.4 4.3 18 14.4 NW 15 28 8 15 1010.4 1008.6 0.0
22/02:30pm 30.8 28.0 2.9 17 14.3 NNW 7 17 4 9 1010.7 - 0.0
22/02:00pm 30.7 27.1 6.6 22 13.2 NNW 15 22 8 12 1011.2 - 0.0
22/01:30pm 30.2 27.1 5.5 21 13.2 WNW 11 19 6 10 1011.4 - 0.0
22/01:00pm 29.7 27.2 6.4 23 12.6 NNE 9 19 5 10 1011.8 - 0.0
22/12:30pm 28.7 25.1 4.9 22 12.5 NNW 13 26 7 14 1012.3 - 0.0
22/12:00pm 28.5 24.2 5.4 23 12.2 NNW 17 24 9 13 1012.7 1010.9 0.0
22/11:30am 27.9 23.7 5.5 24 11.8 N 17 26 9 14 1013.2 - 0.0
22/11:00am 27.1 23.2 5.4 25 11.4 N 15 24 8 13 1013.7 - 0.0
22/10:30am 26.5 23.5 7.5 30 10.3 N 13 26 7 14 1013.9 - 0.0
22/10:00am 25.0 21.3 6.2 30 9.9 NNE 15 22 8 12 1013.8 - 0.0
22/09:30am 24.0 21.9 6.7 33 9.1 NNE 7 17 4 9 1014.2 - 0.0
22/09:00am 21.8 21.7 9.3 45 6.8 CALM 0 0 0 0 1014.0 1012.3 0.0
22/08:30am 20.4 20.5 10.2 52 5.6 CALM 0 0 0 0 1014.1 - 0.0
22/08:00am 18.6 18.8 10.7 60 4.3 CALM 0 0 0 0 1013.9 - 0.0
22/07:30am 15.5 16.0 11.5 77 2.2 CALM 0 0 0 0 1014.1 - 0.0
22/07:00am 15.2 15.5 10.8 75 2.4 CALM 0 0 0 0 1013.6 - 0.0
22/06:30am 14.5 14.7 10.7 78 2.0 CALM 0 0 0 0 1013.2 - 0.0
22/06:00am 14.9 14.0 10.7 76 2.3 E 6 11 3 6 1013.2 1011.4 0.0
22/05:30am 15.0 14.0 11.0 77 2.2 E 7 13 4 7 1012.9 - 0.0
22/05:00am 15.2 14.2 11.0 76 2.3 E 7 13 4 7 1012.8 - 0.0
22/04:30am 15.5 14.5 10.9 74 2.5 E 7 15 4 8 1012.7 - 0.0
22/04:00am 16.2 14.7 10.5 69 3.1 E 9 19 5 10 1012.9 - 0.0
22/03:30am 16.6 15.7 10.5 67 3.3 SE 6 20 3 11 1013.0 - 0.0
22/03:00am 16.6 15.5 10.5 67 3.3 ESE 7 17 4 9 1012.9 1011.1 0.0
22/02:30am 16.8 15.9 10.6 67 3.4 ESE 6 13 3 7 1013.3 - 0.0
22/02:00am 17.0 15.6 10.8 67 3.4 E 9 20 5 11 1013.6 - 0.0
22/01:30am 17.6 16.5 10.5 63 3.9 E 7 15 4 8 1013.8 - 0.0
22/01:00am 18.1 15.7 10.2 60 4.3 E 13 19 7 10 1014.1 - 0.0
22/12:30am 18.8 17.3 8.5 51 5.4 E 6 17 3 9 1014.3 - 0.0
22/12:00am 18.8 18.3 7.9 49 5.7 CALM 0 11 0 6 1014.3 1012.6 0.0
 
Date/Time
CDT
Temp
°C
App
Temp
°C
Dew
Point
°C
Rel
Hum
%
Delta-T
°C
Wind Press
QNH
hPa
Press
MSL
hPa
Rain since
9am
mm
Dir  Spd
km/h
Gust
km/h
Spd
kts
Gust
kts
21/11:30pm 19.4 18.9 7.8 47 6.1 CALM 0 9 0 5 1014.1 - 0.0
21/11:00pm 19.4 18.8 7.5 46 6.2 CALM 0 0 0 0 1014.0 - 0.0
21/10:30pm 20.1 19.4 7.1 43 6.7 CALM 0 0 0 0 1014.1 - 0.0
21/10:00pm 20.7 20.1 7.3 42 7.0 CALM 0 0 0 0 1014.1 - 0.0
21/09:30pm 21.2 20.6 7.4 41 7.2 CALM 0 0 0 0 1013.9 - 0.0
21/09:00pm 21.9 21.2 7.0 38 7.8 CALM 0 0 0 0 1013.6 1011.9 0.0
21/08:30pm 23.3 21.2 6.6 34 8.7 E 7 15 4 8 1013.4 - 0.0
21/08:00pm 24.8 22.7 6.5 31 9.7 E 7 13 4 7 1013.0 - 0.0
21/07:30pm 25.9 22.9 6.0 28 10.5 E 11 20 6 11 1012.8 - 0.0
21/07:00pm 26.6 24.1 6.6 28 10.7 ENE 9 15 5 8 1012.6 - 0.0
21/06:30pm 27.1 25.2 4.8 24 11.6 E 4 11 2 6 1012.4 - 0.0
21/06:00pm 27.1 24.6 6.5 27 11.0 ENE 9 15 5 8 1012.6 1010.8 0.0
21/05:30pm 27.1 24.9 6.0 26 11.2 NNE 7 13 4 7 1012.7 - 0.0
21/05:00pm 26.9 24.3 6.3 27 11.0 E 9 17 5 9 1012.9 - 0.0
21/04:30pm 27.0 25.0 6.9 28 10.8 WSW 7 15 4 8 1013.1 - 0.0
21/04:00pm 26.6 24.6 8.6 32 9.9 E 9 15 5 8 1013.4 - 0.0
21/03:30pm 25.7 23.1 6.3 29 10.3 NE 9 20 5 11 1013.5 - 0.0
21/03:00pm 25.6 23.4 6.3 29 10.2 ENE 7 17 4 9 1013.6 1011.9 0.0
21/02:30pm 25.3 23.2 8.3 34 9.3 ENE 9 19 5 10 1014.0 - 0.0
21/02:00pm 24.1 21.8 7.3 34 9.0 ENE 9 19 5 10 1014.2 - 0.0
21/01:30pm 24.2 23.0 11.5 45 7.3 ENE 9 19 5 10 1014.2 - 0.0
21/01:00pm 22.8 20.8 8.5 40 7.7 ENE 9 17 5 9 1014.5 - 0.0
21/12:30pm 21.8 19.7 9.7 46 6.6 NE 11 19 6 10 1014.6 - 0.0
21/12:00pm 21.1 18.6 9.7 48 6.2 ENE 13 20 7 11 1014.7 1013.0 0.0
21/11:30am 20.6 19.1 10.7 53 5.5 NE 9 17 5 9 1015.0 - 0.0
21/11:00am 19.7 18.7 10.9 57 4.9 ENE 7 19 4 10 1015.3 - 0.0
21/10:30am 18.6 17.4 10.2 58 4.6 ENE 7 19 4 10 1015.3 - 0.0
21/10:00am 17.3 16.6 10.0 62 3.9 E 4 15 2 8 1015.5 - 0.0
21/09:30am 15.8 14.0 9.5 66 3.3 ENE 9 24 5 13 1015.6 - 0.0
21/09:00am 15.0 13.3 9.8 71 2.8 E 9 26 5 14 1015.7 1013.9 0.4
21/08:30am 13.9 12.2 9.7 76 2.2 E 9 20 5 11 1015.5 - 0.4
21/08:00am 12.9 11.7 9.4 79 1.8 E 6 26 3 14 1015.4 - 0.4
21/07:30am 12.2 11.3 9.2 82 1.5 E 4 15 2 8 1015.0 - 0.4
21/07:00am 11.1 10.9 9.0 87 1.1 CALM 0 0 0 0 1014.7 - 0.4
21/06:30am 10.5 10.2 8.8 89 0.9 CALM 0 0 0 0 1014.4 - 0.4
21/06:00am 10.8 10.6 8.9 88 1.0 CALM 0 0 0 0 1014.1 1012.4 0.4
21/05:30am 11.0 10.4 8.9 87 1.1 SE 2 9 1 5 1013.7 - 0.4
21/05:00am 11.2 11.0 9.1 87 1.1 CALM 0 6 0 3 1013.5 - 0.4
21/04:30am 11.2 11.0 9.1 87 1.1 CALM 0 6 0 3 1013.4 - 0.4
21/04:00am 11.3 11.1 9.0 86 1.2 CALM 0 6 0 3 1013.2 - 0.4
21/03:30am 11.4 11.1 8.8 84 1.3 CALM 0 6 0 3 1012.8 - 0.4
21/03:00am 10.9 10.6 8.5 85 1.2 CALM 0 0 0 0 1012.8 1011.0 0.4
21/02:30am 12.1 11.7 8.4 78 1.9 CALM 0 4 0 2 1012.8 - 0.4
21/02:00am 12.3 12.1 9.0 80 1.7 CALM 0 6 0 3 1012.7 - 0.4
21/01:30am 12.4 12.2 9.1 80 1.7 CALM 0 0 0 0 1012.9 - 0.4
21/01:00am 12.8 12.6 9.1 78 1.9 CALM 0 0 0 0 1013.0 - 0.4
21/12:30am 13.3 13.2 9.4 77 2.0 CALM 0 0 0 0 1012.9 - 0.4
21/12:00am 13.7 13.0 9.9 78 2.0 SE 4 13 2 7 1012.6 1010.8 0.4
 
Date/Time
CDT
Temp
°C
App
Temp
°C
Dew
Point
°C
Rel
Hum
%
Delta-T
°C
Wind Press
QNH
hPa
Press
MSL
hPa
Rain since
9am
mm
Dir  Spd
km/h
Gust
km/h
Spd
kts
Gust
kts
20/11:30pm 13.9 14.1 10.7 81 1.7 CALM 0 0 0 0 1012.6 - 0.4
20/11:00pm 14.1 14.5 11.3 83 1.5 CALM 0 0 0 0 1012.1 - 0.4
20/10:30pm 14.2 14.6 11.4 83 1.5 CALM 0 0 0 0 1011.9 - 0.4
20/10:00pm 14.8 14.9 11.4 80 1.9 S 2 17 1 9 1011.5 - 0.4
20/09:30pm 15.0 14.3 11.4 79 2.0 S 6 15 3 8 1011.2 - 0.4
20/09:00pm 15.5 15.2 11.3 76 2.3 S 4 13 2 7 1010.8 1009.0 0.4
20/08:30pm 16.4 16.4 11.3 72 2.8 S 2 15 1 8 1010.4 - 0.4
20/08:00pm 17.3 16.5 11.1 67 3.4 S 6 19 3 10 1010.1 - 0.4
20/07:30pm 18.6 18.6 12.4 67 3.5 S 4 15 2 8 1009.6 - 0.4
20/07:00pm 19.5 18.6 12.5 64 4.0 S 9 20 5 11 1009.2 - 0.4
20/06:30pm 20.5 20.1 13.0 62 4.3 S 7 20 4 11 1009.0 - 0.4
20/06:00pm 20.6 20.1 12.8 61 4.5 S 7 19 4 10 1008.9 1007.1 0.4
20/05:30pm 20.9 20.2 13.1 61 4.5 SSW 9 24 5 13 1008.9 - 0.4
20/05:00pm 21.0 20.7 13.2 61 4.5 SSW 7 24 4 13 1009.0 - 0.4
20/04:30pm 20.3 20.0 12.8 62 4.3 SSW 6 19 3 10 1009.0 - 0.4
20/04:00pm 19.7 19.2 12.2 62 4.3 SSW 6 19 3 10 1008.7 - 0.4
20/03:30pm 20.8 20.4 13.0 61 4.5 SW 7 20 4 11 1008.5 - 0.4
20/03:00pm 20.8 20.6 13.0 61 4.5 S 6 20 3 11 1008.3 1006.5 0.4
20/02:30pm 20.1 18.8 12.6 62 4.3 S 11 30 6 16 1008.3 - 0.4
20/02:00pm 19.8 19.6 13.7 68 3.6 SSW 7 24 4 13 1008.3 - 0.4
20/01:30pm 19.6 20.0 14.8 74 2.9 S 6 20 3 11 1008.4 - 0.4
20/01:00pm 18.0 18.0 13.5 75 2.6 SSW 6 20 3 11 1008.3 - 0.4

Other Formats:

Comma delimited format used in spreadsheet applications
http://www.bom.gov.au/fwo/IDS60801/IDS60801.95667.axf

JavaScript Object Notation format (JSON) in row-major order
http://www.bom.gov.au/fwo/IDS60801/IDS60801.95667.json